Time;durP1;ratioP1;P1;durP2;ratioP2;P2;SDS_P1;SDS_P2;PMS_P1;PMS_P2;Temp;Humidity;BMP_temperature;BMP_pressure;BME280_temperature;BME280_humidity;BME280_pressure;Samples;Min_cycle;Max_cycle;Signal;HPM_P1;HPM_P2
2020/12/28 00:00:59;;;;;;;0.39;0.20;;;;;;;3.61;86.30;95802.38;1982832;82;20327;-81
2020/12/28 00:04:04;;;;;;;0.20;0.20;;;;;;;3.62;86.40;95786.94;1983996;82;20358;-82
2020/12/28 00:07:06;;;;;;;0.30;0.30;;;;;;;3.60;86.37;95788.72;1984969;82;20382;-81
2020/12/28 00:10:10;;;;;;;0.26;0.20;;;;;;;3.60;86.40;95775.06;1986463;82;20307;-81
2020/12/28 00:13:11;;;;;;;0.30;0.30;;;;;;;3.60;86.53;95769.94;1985162;82;20374;-81
2020/12/28 00:16:14;;;;;;;0.24;0.20;;;;;;;3.58;86.34;95777.66;1989509;82;20330;-82
2020/12/28 00:19:16;;;;;;;0.84;0.28;;;;;;;3.60;86.56;95775.06;1984890;82;20372;-81
2020/12/28 00:22:18;;;;;;;0.57;0.30;;;;;;;3.62;86.81;95776.69;1984454;82;20319;-82
2020/12/28 00:25:24;;;;;;;0.20;0.20;;;;;;;3.60;86.75;95762.25;1984457;82;20311;-82
2020/12/28 00:28:26;;;;;;;0.30;0.20;;;;;;;3.62;86.60;95761.28;1984840;82;20319;-82
2020/12/28 00:31:28;;;;;;;1.51;0.20;;;;;;;3.64;86.69;95769.75;1988461;82;20338;-82
2020/12/28 00:34:30;;;;;;;0.21;0.21;;;;;;;3.60;86.55;95767.38;2022767;71;20881;-76
2020/12/28 00:37:32;;;;;;;0.20;0.20;;;;;;;3.60;86.72;95764.81;1971094;82;20367;-76
2020/12/28 00:40:33;;;;;;;0.69;0.30;;;;;;;3.58;86.74;95764.84;1970999;82;20335;-76
2020/12/28 00:43:35;;;;;;;0.20;0.20;;;;;;;3.58;86.87;95766.56;1971680;82;21185;-76
2020/12/28 00:46:36;;;;;;;0.20;0.20;;;;;;;3.59;86.94;95771.66;1971081;82;20335;-75
2020/12/28 00:49:38;;;;;;;0.20;0.20;;;;;;;3.61;86.98;95766.47;1971342;82;20323;-76
2020/12/28 00:52:43;;;;;;;0.21;0.21;;;;;;;3.60;87.00;95764.81;1971597;82;21527;-76
2020/12/28 00:55:44;;;;;;;0.20;0.20;;;;;;;3.63;87.01;95762.13;1971490;82;20791;-76
2020/12/28 00:58:46;;;;;;;0.20;0.20;;;;;;;3.59;86.94;95756.28;1971167;82;20356;-75
2020/12/28 01:01:53;;;;;;;0.24;0.20;;;;;;;3.60;87.01;95757.09;1971657;82;20348;-75
2020/12/28 01:04:54;;;;;;;0.28;0.28;;;;;;;3.56;87.15;95751.22;1970707;82;20353;-76
2020/12/28 01:07:56;;;;;;;0.20;0.20;;;;;;;3.52;87.11;95751.41;1971623;82;20338;-76
2020/12/28 01:10:57;;;;;;;0.30;0.30;;;;;;;3.53;87.23;95748.78;1971117;82;20370;-76
2020/12/28 01:13:59;;;;;;;0.20;0.20;;;;;;;3.54;87.40;95753.00;1970515;82;20361;-76
2020/12/28 01:17:01;;;;;;;0.20;0.20;;;;;;;3.54;87.35;95758.13;1971212;82;20406;-77
2020/12/28 01:20:02;;;;;;;0.20;0.20;;;;;;;3.56;87.42;95769.19;1971295;82;20343;-76
2020/12/28 01:23:04;;;;;;;0.31;0.20;;;;;;;3.58;87.56;95776.81;1971024;82;21163;-77
2020/12/28 01:26:06;;;;;;;1.48;0.30;;;;;;;3.55;87.67;95790.59;1970889;82;21308;-76
2020/12/28 01:29:07;;;;;;;0.45;0.26;;;;;;;3.58;87.75;95799.91;1971454;82;20875;-77
2020/12/28 01:32:09;;;;;;;0.30;0.30;;;;;;;3.62;87.84;95804.91;1971568;82;20330;-77
2020/12/28 01:35:11;;;;;;;0.30;0.30;;;;;;;3.64;87.82;95794.56;1971016;82;20351;-77
2020/12/28 01:38:12;;;;;;;0.76;0.31;;;;;;;3.67;87.78;95791.91;1971744;82;20348;-77
2020/12/28 01:41:14;;;;;;;0.30;0.30;;;;;;;3.69;87.68;95784.97;1974557;82;20377;-77
2020/12/28 01:44:15;;;;;;;0.25;0.25;;;;;;;3.71;87.39;95788.31;1970716;82;20648;-77
2020/12/28 01:47:17;;;;;;;0.73;0.30;;;;;;;3.71;87.14;95792.63;1971683;82;20362;-78
2020/12/28 01:50:19;;;;;;;0.20;0.20;;;;;;;3.72;87.09;95792.56;1971528;82;20335;-77
2020/12/28 01:53:21;;;;;;;0.30;0.30;;;;;;;3.72;86.91;95782.31;1971190;82;20366;-77
2020/12/28 01:56:23;;;;;;;0.30;0.30;;;;;;;3.72;86.81;95784.03;1971276;82;20384;-77
2020/12/28 01:59:25;;;;;;;0.30;0.30;;;;;;;3.69;86.77;95779.03;1971673;82;20360;-77
2020/12/28 02:02:28;;;;;;;0.31;0.30;;;;;;;3.70;86.75;95791.78;1971192;82;20385;-76
2020/12/28 02:05:30;;;;;;;0.30;0.30;;;;;;;3.69;86.72;95781.59;1970507;82;20369;-77
2020/12/28 02:08:32;;;;;;;0.20;0.20;;;;;;;3.68;86.59;95783.31;1971123;82;20461;-76
2020/12/28 02:11:34;;;;;;;0.30;0.29;;;;;;;3.68;86.52;95770.47;1969448;82;20404;-76
2020/12/28 02:14:35;;;;;;;0.45;0.30;;;;;;;3.64;86.47;95764.63;1970619;82;20355;-76
2020/12/28 02:17:37;;;;;;;0.49;0.30;;;;;;;3.61;86.70;95774.16;1971584;82;20327;-76
2020/12/28 02:20:40;;;;;;;0.20;0.20;;;;;;;3.56;86.72;95773.47;1970617;82;20339;-76
2020/12/28 02:23:45;;;;;;;0.30;0.30;;;;;;;3.56;86.76;95776.88;1971582;82;20367;-76
2020/12/28 02:26:47;;;;;;;0.30;0.30;;;;;;;3.57;86.42;95765.72;1971218;82;20331;-75
2020/12/28 02:29:48;;;;;;;0.20;0.20;;;;;;;3.58;86.31;95769.97;1970998;82;20379;-75
2020/12/28 02:32:50;;;;;;;1.61;0.20;;;;;;;3.59;86.33;95771.66;1974275;82;20327;-76
2020/12/28 02:35:52;;;;;;;0.30;0.30;;;;;;;3.59;86.53;95774.22;1970781;82;20339;-75
2020/12/28 02:38:53;;;;;;;0.40;0.30;;;;;;;3.62;86.68;95774.13;1971028;82;20335;-76
2020/12/28 02:41:55;;;;;;;0.20;0.20;;;;;;;3.65;86.82;95773.16;1970851;82;20364;-75
2020/12/28 02:44:56;;;;;;;0.30;0.30;;;;;;;3.64;86.83;95772.31;1971142;82;20371;-75
2020/12/28 02:47:58;;;;;;;0.88;0.30;;;;;;;3.69;86.83;95784.16;1970745;82;20335;-75
2020/12/28 02:50:59;;;;;;;0.52;0.35;;;;;;;3.71;86.70;95770.38;1971403;82;20365;-75
2020/12/28 02:54:02;;;;;;;0.20;0.20;;;;;;;3.72;86.61;95771.22;1971043;82;21267;-75
2020/12/28 02:57:03;;;;;;;0.29;0.29;;;;;;;3.73;86.70;95765.19;1970977;82;20327;-75
2020/12/28 03:00:06;;;;;;;0.32;0.22;;;;;;;3.73;86.75;95767.75;1970973;82;20335;-75
2020/12/28 03:03:07;;;;;;;1.11;0.30;;;;;;;3.74;86.66;95760.00;1972689;82;20400;-75
2020/12/28 03:06:10;;;;;;;0.21;0.21;;;;;;;3.76;86.65;95767.63;1972031;82;20440;-75
2020/12/28 03:09:12;;;;;;;0.30;0.30;;;;;;;3.76;86.57;95762.50;1972211;82;20735;-75
2020/12/28 03:12:14;;;;;;;0.40;0.26;;;;;;;3.77;86.58;95757.34;1973250;82;20447;-75
2020/12/28 03:15:15;;;;;;;0.20;0.20;;;;;;;3.79;86.42;95765.81;1972099;82;20342;-75
2020/12/28 03:18:17;;;;;;;0.30;0.30;;;;;;;3.82;86.35;95762.31;1972279;82;20352;-75
2020/12/28 03:21:18;;;;;;;1.21;0.30;;;;;;;3.80;86.27;95758.97;1973410;82;20372;-75
2020/12/28 03:24:20;;;;;;;0.60;0.30;;;;;;;3.80;86.12;95759.78;1971763;82;20354;-75
2020/12/28 03:27:22;;;;;;;0.26;0.22;;;;;;;3.78;86.05;95753.06;1972467;82;20355;-75
2020/12/28 03:30:23;;;;;;;0.36;0.30;;;;;;;3.76;86.05;95753.06;1972436;82;20356;-74
2020/12/28 03:33:25;;;;;;;0.45;0.30;;;;;;;3.75;86.09;95743.72;1972043;82;20355;-75
2020/12/28 03:36:27;;;;;;;0.20;0.20;;;;;;;3.73;85.84;95748.06;1972154;82;20326;-74
2020/12/28 03:39:29;;;;;;;0.51;0.29;;;;;;;3.75;85.74;95753.13;1972029;82;20466;-74
2020/12/28 03:42:31;;;;;;;0.43;0.30;;;;;;;3.73;85.81;95749.78;1972749;82;20368;-74
2020/12/28 03:45:32;;;;;;;0.24;0.21;;;;;;;3.70;85.78;95750.75;1971871;82;20859;-74
2020/12/28 03:48:34;;;;;;;0.60;0.51;;;;;;;3.69;85.76;95748.22;1972598;82;20327;-74
2020/12/28 03:51:36;;;;;;;0.68;0.40;;;;;;;3.69;85.70;95755.94;1971931;82;20977;-74
2020/12/28 03:54:37;;;;;;;0.56;0.20;;;;;;;3.65;85.60;95747.50;1972226;82;20327;-74
2020/12/28 03:57:39;;;;;;;0.20;0.20;;;;;;;3.59;85.41;95745.16;1971371;82;21164;-74
2020/12/28 04:00:40;;;;;;;0.21;0.20;;;;;;;3.54;85.38;95741.91;1972011;82;20343;-75
2020/12/28 04:03:42;;;;;;;0.96;0.29;;;;;;;3.45;85.19;95737.97;1970214;82;20371;-74
2020/12/28 04:06:44;;;;;;;0.65;0.20;;;;;;;3.39;85.38;95739.88;1971055;82;20841;-75
2020/12/28 04:09:45;;;;;;;1.21;0.20;;;;;;;3.35;85.29;95736.59;1971496;82;20379;-74
2020/12/28 04:12:47;;;;;;;1.05;0.20;;;;;;;3.25;85.15;95727.56;1970933;82;20349;-74
2020/12/28 04:15:49;;;;;;;1.46;0.40;;;;;;;3.17;85.12;95715.00;1970499;82;20343;-74
2020/12/28 04:18:51;;;;;;;1.49;0.40;;;;;;;3.12;85.13;95721.19;1970922;82;20389;-74
2020/12/28 04:21:52;;;;;;;0.30;0.30;;;;;;;3.02;85.12;95718.09;1970695;82;20400;-74
2020/12/28 04:24:54;;;;;;;0.20;0.20;;;;;;;2.91;85.25;95717.63;1973951;82;20361;-74
2020/12/28 04:27:55;;;;;;;0.20;0.20;;;;;;;2.78;85.34;95717.19;1970951;82;20331;-75
2020/12/28 04:30:57;;;;;;;0.50;0.30;;;;;;;2.71;85.56;95719.13;1970630;82;20343;-74
2020/12/28 04:33:59;;;;;;;0.44;0.30;;;;;;;2.68;85.93;95711.53;1970552;82;20355;-74
2020/12/28 04:37:00;;;;;;;0.29;0.20;;;;;;;2.67;85.95;95709.00;1970874;82;20319;-74
2020/12/28 04:40:04;;;;;;;0.25;0.25;;;;;;;2.63;85.96;95702.31;1971574;82;20400;-75
2020/12/28 04:43:14;;;;;;;1.08;0.25;;;;;;;2.59;85.93;95701.59;1971107;82;20331;-74
2020/12/28 04:46:16;;;;;;;0.20;0.20;;;;;;;2.56;86.11;95700.84;1975515;82;20355;-74
2020/12/28 04:49:18;;;;;;;0.20;0.20;;;;;;;2.53;86.20;95698.41;1971579;82;20360;-74
2020/12/28 04:52:19;;;;;;;1.48;0.20;;;;;;;2.47;86.31;95699.41;1972275;82;20411;-74
2020/12/28 04:55:21;;;;;;;0.21;0.20;;;;;;;2.41;86.33;95700.47;1971356;82;20331;-74
2020/12/28 04:58:24;;;;;;;0.30;0.20;;;;;;;2.30;86.29;95694.00;1971506;82;20380;-74
2020/12/28 05:01:27;;;;;;;0.26;0.20;;;;;;;2.26;86.56;95692.44;1972000;82;20438;-75
2020/12/28 05:04:29;;;;;;;0.29;0.21;;;;;;;2.19;86.47;95685.84;1971498;82;20494;-74
2020/12/28 05:07:33;;;;;;;0.20;0.20;;;;;;;2.11;86.41;95673.25;1972101;82;20371;-74
2020/12/28 05:10:35;;;;;;;0.76;0.25;;;;;;;2.03;86.41;95675.22;1971204;82;20387;-74
2020/12/28 05:13:36;;;;;;;0.59;0.30;;;;;;;1.92;86.37;95665.31;1971716;82;20335;-74
2020/12/28 05:16:38;;;;;;;0.44;0.20;;;;;;;1.89;86.46;95674.81;1971600;82;20818;-74
2020/12/28 05:19:40;;;;;;;0.17;0.17;;;;;;;1.82;86.44;95679.28;1971180;82;20465;-75
2020/12/28 05:22:45;;;;;;;0.20;0.20;;;;;;;1.76;86.53;95687.97;1971498;82;20339;-75
2020/12/28 05:25:49;;;;;;;1.79;0.29;;;;;;;1.74;86.75;95689.72;1971222;82;20867;-75
2020/12/28 05:28:55;;;;;;;0.54;0.30;;;;;;;1.78;86.94;95687.91;1972185;82;20880;-75
2020/12/28 05:31:56;;;;;;;0.20;0.20;;;;;;;1.77;87.16;95681.13;1971369;82;20462;-75
2020/12/28 05:34:58;;;;;;;0.20;0.20;;;;;;;1.79;87.34;95680.19;1971024;82;20384;-74
2020/12/28 05:38:00;;;;;;;0.20;0.20;;;;;;;1.78;87.53;95683.63;1971545;82;20480;-75
2020/12/28 05:41:05;;;;;;;0.43;0.30;;;;;;;1.75;87.60;95686.28;1971268;82;20380;-75
2020/12/28 05:44:09;;;;;;;0.66;0.20;;;;;;;1.72;87.72;95695.78;1971106;82;20347;-74
2020/12/28 05:47:13;;;;;;;0.68;0.20;;;;;;;1.71;88.04;95702.59;1971430;82;20357;-75
2020/12/28 05:50:20;;;;;;;0.52;0.25;;;;;;;1.69;88.18;95718.88;1971269;82;20339;-75
2020/12/28 05:53:24;;;;;;;0.30;0.30;;;;;;;1.72;88.73;95711.13;1970858;82;20863;-75
2020/12/28 05:56:27;;;;;;;2.10;0.55;;;;;;;1.80;89.10;95709.19;1971302;82;20361;-74
2020/12/28 05:59:33;;;;;;;0.64;0.40;;;;;;;1.84;89.25;95702.25;1971014;82;20389;-75
2020/12/28 06:02:39;;;;;;;0.30;0.30;;;;;;;1.92;89.42;95700.28;1971867;82;20402;-74
2020/12/28 06:05:47;;;;;;;0.40;0.40;;;;;;;1.96;89.41;95684.78;1971005;82;20347;-74
2020/12/28 06:08:50;;;;;;;0.27;0.27;;;;;;;2.02;89.46;95682.06;1971879;82;20331;-75
2020/12/28 06:12:05;;;;;;;1.84;0.40;;;;;;;1.99;89.02;95679.63;1970903;82;20211;-74
2020/12/28 06:15:20;;;;;;;0.21;0.20;;;;;;;2.01;89.29;95675.28;1971076;82;20346;-74
2020/12/28 06:18:21;;;;;;;0.30;0.30;;;;;;;2.07;89.21;95671.69;1971500;82;20319;-74
2020/12/28 06:21:34;;;;;;;0.30;0.30;;;;;;;2.03;89.06;95670.97;1971392;82;20368;-74
2020/12/28 06:24:36;;;;;;;1.58;0.40;;;;;;;2.02;88.93;95660.78;1971419;82;20365;-75
2020/12/28 06:27:39;;;;;;;2.85;0.30;;;;;;;1.99;88.97;95655.75;1970005;82;21213;-74
2020/12/28 06:30:41;;;;;;;0.38;0.38;;;;;;;1.91;88.40;95643.19;1970950;82;20364;-75
2020/12/28 06:33:49;;;;;;;0.30;0.30;;;;;;;1.86;88.51;95628.88;1971732;82;20859;-74
2020/12/28 06:37:01;;;;;;;0.59;0.30;;;;;;;1.85;88.32;95635.72;1971196;82;20357;-77
2020/12/28 06:40:03;;;;;;;0.41;0.25;;;;;;;1.80;88.17;95635.84;1971324;82;20243;-78
2020/12/28 06:43:12;;;;;;;0.30;0.30;;;;;;;1.73;88.00;95634.34;1970860;82;20343;-77
2020/12/28 06:46:21;;;;;;;0.60;0.40;;;;;;;1.69;87.91;95637.06;1971201;82;20387;-77
2020/12/28 06:49:22;;;;;;;2.69;0.31;;;;;;;1.62;87.76;95645.81;1971527;82;20217;-78
2020/12/28 06:52:25;;;;;;;1.21;0.24;;;;;;;1.58;87.73;95649.31;1973356;82;20683;-81
2020/12/28 06:55:27;;;;;;;0.63;0.30;;;;;;;1.51;87.43;95651.22;1980036;82;20339;-80
2020/12/28 06:58:28;;;;;;;0.30;0.30;;;;;;;1.45;87.07;95646.28;1978797;82;20331;-80
2020/12/28 07:01:30;;;;;;;0.30;0.30;;;;;;;1.35;87.03;95655.09;1979298;82;20367;-78
2020/12/28 07:04:34;;;;;;;0.25;0.25;;;;;;;1.32;87.17;95663.69;1972453;82;20751;-79
2020/12/28 07:07:40;;;;;;;0.30;0.30;;;;;;;1.27;87.04;95680.03;1971644;82;20365;-76
2020/12/28 07:10:41;;;;;;;0.36;0.36;;;;;;;1.25;87.33;95689.44;1972234;82;21077;-77
2020/12/28 07:13:43;;;;;;;1.58;0.31;;;;;;;1.21;87.16;95688.69;1971059;82;20927;-77
2020/12/28 07:16:45;;;;;;;0.30;0.30;;;;;;;1.15;86.88;95676.09;1971211;82;20346;-76
2020/12/28 07:19:46;;;;;;;0.30;0.30;;;;;;;1.11;87.23;95679.63;1971197;82;20349;-76
2020/12/28 07:22:48;;;;;;;0.30;0.30;;;;;;;1.04;86.99;95681.47;1970862;82;21006;-74
2020/12/28 07:26:11;;;;;;;0.66;0.30;;;;;;;1.02;87.47;95667.09;1970869;82;20462;-75
2020/12/28 07:29:18;;;;;;;0.36;0.36;;;;;;;1.09;87.91;95671.16;1971459;82;20361;-76
2020/12/28 07:32:19;;;;;;;0.45;0.30;;;;;;;1.14;88.07;95667.59;1971066;82;20326;-75
2020/12/28 07:35:21;;;;;;;0.40;0.40;;;;;;;1.14;88.12;95662.47;1971027;82;20373;-77
2020/12/28 07:38:23;;;;;;;1.25;0.36;;;;;;;1.21;88.49;95653.75;1970796;82;20346;-76
2020/12/28 07:41:25;;;;;;;0.31;0.31;;;;;;;1.22;88.37;95654.59;1971416;82;20356;-75
2020/12/28 07:44:27;;;;;;;0.91;0.91;;;;;;;1.29;88.47;95645.06;1970940;82;20891;-76
2020/12/28 07:48:08;;;;;;;0.55;0.40;;;;;;;1.27;88.32;95646.81;1972660;82;20360;-79
2020/12/28 07:51:14;;;;;;;0.88;0.40;;;;;;;1.16;88.04;95639.44;1975055;82;20845;-79
2020/12/28 07:54:20;;;;;;;0.40;0.40;;;;;;;1.16;88.17;95634.34;1974963;82;20385;-77
2020/12/28 07:58:04;;;;;;;0.40;0.40;;;;;;;1.12;88.02;95627.66;1975411;82;20355;-79
2020/12/28 08:01:15;;;;;;;0.98;0.50;;;;;;;1.13;88.01;95619.94;1976841;82;20346;-78
2020/12/28 08:04:22;;;;;;;3.94;1.94;;;;;;;1.18;88.03;95612.97;1974688;82;20748;-75
2020/12/28 08:07:24;;;;;;;2.03;1.10;;;;;;;1.20;87.90;95621.44;1975842;82;20229;-75
2020/12/28 08:10:27;;;;;;;2.49;0.90;;;;;;;1.12;87.56;95625.94;1974804;82;20841;-75
2020/12/28 08:13:30;;;;;;;4.26;3.13;;;;;;;1.10;88.13;95630.25;1975890;82;20411;-75
2020/12/28 08:16:32;;;;;;;3.98;3.04;;;;;;;1.12;88.23;95643.81;1975798;82;20333;-75
2020/12/28 08:19:34;;;;;;;2.80;2.60;;;;;;;1.16;88.36;95652.22;1975696;82;20407;-76
2020/12/28 08:22:35;;;;;;;1.59;1.49;;;;;;;1.15;88.36;95648.84;1972763;82;20519;-78
2020/12/28 08:25:37;;;;;;;2.43;1.26;;;;;;;1.15;88.45;95658.22;1971286;82;20343;-78
2020/12/28 08:28:38;;;;;;;1.59;1.49;;;;;;;1.19;88.79;95652.97;1978277;82;20190;-83
2020/12/28 08:31:41;;;;;;;1.41;1.30;;;;;;;1.25;88.93;95657.06;1985431;82;20327;-82
2020/12/28 08:34:53;;;;;;;1.18;1.08;;;;;;;1.26;88.87;95658.75;1974460;82;20331;-79
2020/12/28 08:38:04;;;;;;;7.14;1.10;;;;;;;1.29;89.23;95651.00;1971912;82;20225;-79
2020/12/28 08:41:06;;;;;;;2.94;0.98;;;;;;;1.40;89.38;95641.28;1972365;82;20912;-76
2020/12/28 08:44:08;;;;;;;1.46;1.00;;;;;;;1.48;89.52;95634.25;1970686;82;20849;-77
2020/12/28 08:47:13;;;;;;;1.14;0.98;;;;;;;1.58;89.66;95628.84;1970971;82;20346;-76
2020/12/28 08:50:14;;;;;;;0.85;0.70;;;;;;;1.63;89.69;95604.84;1971165;82;20374;-76
2020/12/28 08:53:20;;;;;;;0.77;0.77;;;;;;;1.74;90.06;95610.44;1971696;82;20350;-75
2020/12/28 08:56:22;;;;;;;2.36;1.00;;;;;;;1.83;90.13;95609.34;1971680;82;20458;-76
2020/12/28 08:59:24;;;;;;;1.72;1.13;;;;;;;1.91;90.20;95620.16;1971519;82;20370;-77
2020/12/28 09:02:27;;;;;;;1.49;1.04;;;;;;;2.00;90.30;95614.78;1972188;82;20193;-76
2020/12/28 09:05:29;;;;;;;1.55;1.26;;;;;;;2.07;90.32;95615.41;1970526;82;20373;-76
2020/12/28 09:08:31;;;;;;;1.80;1.48;;;;;;;2.10;90.22;95608.47;1971457;82;20338;-78
2020/12/28 09:11:33;;;;;;;3.40;1.30;;;;;;;2.16;90.37;95616.84;1971475;82;20356;-76
2020/12/28 09:14:35;;;;;;;1.84;1.30;;;;;;;2.24;90.55;95615.69;1969551;82;20368;-76
2020/12/28 09:17:48;;;;;;;1.64;1.30;;;;;;;2.36;90.66;95625.53;1969795;82;20382;-76
2020/12/28 09:20:50;;;;;;;1.63;1.52;;;;;;;2.48;90.75;95629.41;1969613;82;20383;-76
2020/12/28 09:23:51;;;;;;;2.03;1.66;;;;;;;2.56;90.73;95635.13;1974026;82;20380;-84
2020/12/28 09:26:57;;;;;;;2.42;1.66;;;;;;;2.61;90.69;95635.78;1973244;82;20336;-76
2020/12/28 09:29:58;;;;;;;3.06;1.70;;;;;;;2.66;90.66;95644.16;1969800;82;20351;-77
2020/12/28 09:33:00;;;;;;;2.45;1.50;;;;;;;2.71;90.73;95644.84;1969594;82;20384;-76
2020/12/28 09:36:02;;;;;;;2.08;1.30;;;;;;;2.77;90.92;95643.81;1970839;82;20343;-76
2020/12/28 09:39:05;;;;;;;2.35;1.50;;;;;;;2.86;91.10;95645.19;1969498;82;20983;-77
2020/12/28 09:42:06;;;;;;;1.76;1.39;;;;;;;2.97;91.17;95643.94;1970659;82;21200;-77
2020/12/28 09:45:36;;;;;;;1.34;1.10;;;;;;;3.04;91.07;95644.56;1969528;82;20489;-77
2020/12/28 09:48:31;;;;;;;1.31;1.21;;;;;;;3.13;91.03;95641.69;1969234;82;20323;-77
2020/12/28 09:51:33;;;;;;;1.69;0.96;;;;;;;3.25;91.10;95637.84;1970106;82;20901;-77
2020/12/28 09:54:35;;;;;;;1.00;0.90;;;;;;;3.33;90.99;95638.41;1969486;82;20355;-77
2020/12/28 09:57:36;;;;;;;1.09;0.95;;;;;;;3.42;90.93;95640.63;1970115;82;20351;-77
2020/12/28 10:00:38;;;;;;;0.95;0.90;;;;;;;3.49;90.84;95638.69;1970496;82;20401;-76
2020/12/28 10:03:39;;;;;;;1.09;0.81;;;;;;;3.55;90.73;95628.19;1969485;82;20347;-77
2020/12/28 10:06:41;;;;;;;0.99;0.81;;;;;;;3.63;90.83;95629.59;1977096;82;20834;-77
2020/12/28 10:09:43;;;;;;;1.63;0.89;;;;;;;3.72;90.79;95627.53;1969837;82;21320;-78
2020/12/28 10:12:44;;;;;;;1.21;0.90;;;;;;;3.76;90.72;95629.94;1970057;82;20351;-77
2020/12/28 10:15:46;;;;;;;1.55;0.80;;;;;;;3.81;90.66;95627.22;1972789;82;20392;-77
2020/12/28 10:18:48;;;;;;;1.17;0.91;;;;;;;3.86;90.60;95636.41;1970573;82;20813;-77
2020/12/28 10:21:50;;;;;;;0.60;0.60;;;;;;;3.89;90.47;95638.00;1969934;82;20355;-79
2020/12/28 10:24:52;;;;;;;1.55;1.04;;;;;;;3.88;90.21;95636.34;1969944;82;20388;-77
2020/12/28 10:27:53;;;;;;;2.09;0.70;;;;;;;3.87;90.29;95634.66;1969370;82;20830;-77
2020/12/28 10:30:55;;;;;;;1.76;0.60;;;;;;;3.86;90.31;95626.13;1970229;82;20498;-77
2020/12/28 10:33:57;;;;;;;0.31;0.31;;;;;;;3.91;90.33;95629.34;1969676;82;20335;-76
2020/12/28 10:36:58;;;;;;;1.10;0.47;;;;;;;3.90;90.20;95635.38;1970295;82;20751;-77
2020/12/28 10:40:00;;;;;;;0.40;0.40;;;;;;;3.92;90.23;95643.84;1971648;82;21067;-78
2020/12/28 10:43:02;;;;;;;0.45;0.45;;;;;;;3.91;90.20;95637.03;1970205;82;20365;-78
2020/12/28 10:46:10;;;;;;;0.75;0.40;;;;;;;3.89;90.18;95636.28;1969021;82;20384;-78
2020/12/28 10:49:12;;;;;;;0.60;0.40;;;;;;;3.89;90.21;95630.31;1970355;82;20778;-77
2020/12/28 10:52:15;;;;;;;0.51;0.46;;;;;;;3.90;90.35;95631.97;1972970;82;20430;-79
2020/12/28 10:55:16;;;;;;;0.50;0.50;;;;;;;3.90;90.25;95629.41;1975066;82;20620;-79
2020/12/28 10:58:19;;;;;;;0.57;0.35;;;;;;;3.92;90.39;95631.00;1977231;82;20351;-83
2020/12/28 11:01:25;;;;;;;0.86;0.40;;;;;;;3.90;90.16;95621.72;1974900;82;20760;-78
2020/12/28 11:04:28;;;;;;;0.54;0.40;;;;;;;3.91;90.28;95629.34;1970690;82;20544;-78
2020/12/28 11:07:29;;;;;;;0.60;0.40;;;;;;;3.93;90.32;95629.28;1971244;82;20331;-79
2020/12/28 11:10:31;;;;;;;0.40;0.40;;;;;;;3.97;90.36;95630.03;1971376;82;20376;-79
2020/12/28 11:13:32;;;;;;;0.40;0.40;;;;;;;3.95;90.24;95630.09;1970610;82;20347;-78
2020/12/28 11:16:34;;;;;;;0.85;0.40;;;;;;;3.94;90.15;95634.34;1970849;82;20918;-78
2020/12/28 11:19:36;;;;;;;1.33;0.40;;;;;;;3.97;90.21;95638.56;1973374;82;20364;-78
2020/12/28 11:22:37;;;;;;;0.46;0.30;;;;;;;3.99;90.02;95643.63;1970293;82;21016;-78
2020/12/28 11:25:39;;;;;;;0.30;0.30;;;;;;;3.99;89.80;95647.03;1970596;82;20347;-79
2020/12/28 11:28:40;;;;;;;0.46;0.25;;;;;;;4.00;89.76;95643.56;1972214;82;20723;-78
2020/12/28 11:31:42;;;;;;;0.24;0.20;;;;;;;4.00;89.47;95645.28;1971041;82;20360;-77
2020/12/28 11:34:44;;;;;;;0.20;0.20;;;;;;;4.00;89.43;95651.25;1971214;82;20354;-78
2020/12/28 11:37:45;;;;;;;0.39;0.20;;;;;;;4.01;89.33;95634.97;1971044;82;20867;-78
2020/12/28 11:40:47;;;;;;;0.39;0.20;;;;;;;3.99;89.00;95652.16;1970959;82;20353;-79
2020/12/28 11:43:49;;;;;;;0.30;0.30;;;;;;;3.99;88.78;95659.03;1971306;82;20928;-78
2020/12/28 11:46:54;;;;;;;0.32;0.20;;;;;;;3.93;88.58;95654.94;1970296;82;20438;-77
2020/12/28 11:49:55;;;;;;;0.22;0.22;;;;;;;3.92;88.69;95650.72;1971029;82;20368;-78
2020/12/28 11:52:57;;;;;;;0.20;0.20;;;;;;;3.92;88.50;95645.56;1970781;82;20886;-78
2020/12/28 11:56:03;;;;;;;0.30;0.30;;;;;;;3.88;88.20;95641.47;1971541;82;20371;-78
2020/12/28 11:59:04;;;;;;;0.41;0.30;;;;;;;3.86;88.32;95646.66;1971111;82;20370;-79
2020/12/28 12:02:06;;;;;;;0.20;0.20;;;;;;;3.89;88.23;95643.13;1970360;82;20339;-79
2020/12/28 12:05:08;;;;;;;0.43;0.36;;;;;;;3.83;88.07;95643.38;1977182;82;20382;-78
2020/12/28 12:08:09;;;;;;;0.30;0.30;;;;;;;3.82;88.31;95652.81;1971354;82;21312;-79
2020/12/28 12:11:11;;;;;;;0.20;0.20;;;;;;;3.85;88.46;95651.84;1971463;82;20367;-78
2020/12/28 12:14:14;;;;;;;0.20;0.20;;;;;;;3.89;88.56;95656.78;1970267;82;20364;-80
2020/12/28 12:17:30;;;;;;;1.21;0.30;;;;;;;3.89;88.38;95654.22;1970716;82;21019;-79
2020/12/28 12:20:31;;;;;;;0.30;0.30;;;;;;;3.90;88.61;95657.63;1970425;82;20835;-79
2020/12/28 12:23:33;;;;;;;1.38;0.20;;;;;;;3.95;88.63;95658.31;1973488;82;20354;-78
2020/12/28 12:26:35;;;;;;;0.34;0.30;;;;;;;3.99;88.52;95657.28;1970310;82;20380;-78
2020/12/28 12:29:36;;;;;;;0.30;0.30;;;;;;;4.01;88.43;95652.09;1970456;82;20345;-78
2020/12/28 12:32:38;;;;;;;0.38;0.36;;;;;;;4.07;88.48;95659.56;1970551;82;20343;-76
2020/12/28 12:35:40;;;;;;;0.44;0.26;;;;;;;4.06;88.13;95658.72;1970341;82;20394;-77
2020/12/28 12:38:42;;;;;;;0.43;0.30;;;;;;;4.17;88.36;95660.88;1970753;82;20364;-76
2020/12/28 12:41:46;;;;;;;0.34;0.26;;;;;;;4.37;88.79;95666.06;1970674;82;20396;-77
2020/12/28 12:44:48;;;;;;;0.36;0.21;;;;;;;4.62;88.96;95670.19;1971082;82;20357;-77
2020/12/28 12:47:50;;;;;;;0.26;0.26;;;;;;;4.77;88.21;95661.84;1971021;82;20559;-77
2020/12/28 12:50:53;;;;;;;0.65;0.29;;;;;;;4.94;87.86;95672.28;1970269;82;20331;-77
2020/12/28 12:53:55;;;;;;;0.32;0.20;;;;;;;5.01;87.08;95675.41;1971151;82;20392;-76
2020/12/28 12:56:57;;;;;;;0.40;0.20;;;;;;;5.06;86.40;95683.78;1970574;82;20360;-76
2020/12/28 13:00:05;;;;;;;0.20;0.20;;;;;;;5.11;86.19;95681.84;1971309;82;20327;-76
2020/12/28 13:03:06;;;;;;;0.36;0.30;;;;;;;5.10;85.54;95685.31;1971301;82;20390;-76
2020/12/28 13:06:08;;;;;;;0.20;0.20;;;;;;;5.07;84.92;95678.56;1970744;82;20193;-75
2020/12/28 13:09:10;;;;;;;0.10;0.10;;;;;;;5.05;84.70;95684.69;1971537;82;20335;-75
2020/12/28 13:12:11;;;;;;;1.26;0.10;;;;;;;5.07;84.19;95683.72;1971497;82;20432;-75
2020/12/28 13:15:13;;;;;;;0.10;0.10;;;;;;;5.02;83.22;95682.22;1971609;82;20359;-75
2020/12/28 13:18:15;;;;;;;0.10;0.10;;;;;;;5.07;83.76;95691.44;1971549;82;20388;-74
2020/12/28 13:21:17;;;;;;;0.36;0.30;;;;;;;5.12;82.41;95693.78;1971593;82;21239;-74
2020/12/28 13:24:18;;;;;;;0.17;0.17;;;;;;;5.16;82.47;95688.44;1971323;82;20766;-75
2020/12/28 13:27:20;;;;;;;0.20;0.20;;;;;;;5.15;81.66;95678.22;1971516;82;20466;-74
2020/12/28 13:30:26;;;;;;;0.39;0.20;;;;;;;5.10;81.37;95686.16;1971330;82;20457;-73
2020/12/28 13:33:28;;;;;;;0.11;0.11;;;;;;;5.02;80.81;95693.34;1971292;82;20822;-73
2020/12/28 13:36:38;;;;;;;0.61;0.24;;;;;;;4.89;80.49;95691.38;1971167;82;20339;-74
2020/12/28 13:39:40;;;;;;;0.10;0.10;;;;;;;4.90;81.42;95685.31;1971856;82;20360;-74
2020/12/28 13:42:42;;;;;;;0.10;0.10;;;;;;;4.88;82.24;95699.97;1971418;82;20360;-74
2020/12/28 13:45:43;;;;;;;0.20;0.20;;;;;;;4.86;82.17;95705.19;1970883;82;20347;-73
2020/12/28 13:48:45;;;;;;;0.10;0.10;;;;;;;4.75;81.59;95709.91;1971598;82;20335;-78
2020/12/28 13:51:47;;;;;;;0.10;0.10;;;;;;;4.69;82.01;95711.00;1971509;82;21311;-74
2020/12/28 13:54:48;;;;;;;0.20;0.20;;;;;;;4.64;82.42;95712.91;1971741;82;20344;-73
2020/12/28 13:57:50;;;;;;;0.10;0.10;;;;;;;4.61;82.68;95715.59;1971112;82;20428;-73
2020/12/28 14:00:52;;;;;;;0.10;0.10;;;;;;;4.60;82.77;95705.38;1970453;82;20381;-73
2020/12/28 14:03:54;;;;;;;0.90;0.20;;;;;;;4.59;82.96;95717.41;1970586;82;20707;-73
2020/12/28 14:06:56;;;;;;;0.20;0.20;;;;;;;4.58;83.15;95717.47;1971204;82;20378;-74
2020/12/28 14:09:57;;;;;;;0.66;0.19;;;;;;;4.54;83.19;95720.16;1971637;82;20339;-74
2020/12/28 14:12:59;;;;;;;0.10;0.10;;;;;;;4.52;83.21;95726.25;1971269;82;20327;-74
2020/12/28 14:16:00;;;;;;;0.20;0.20;;;;;;;4.50;83.63;95730.63;1970869;82;20331;-74
2020/12/28 14:19:02;;;;;;;0.20;0.20;;;;;;;4.48;83.98;95730.66;1971437;82;20346;-74
2020/12/28 14:22:04;;;;;;;0.19;0.17;;;;;;;4.49;84.08;95729.78;1971568;82;20367;-76
2020/12/28 14:25:08;;;;;;;0.13;0.13;;;;;;;4.50;83.46;95734.03;1970558;82;20559;-75
2020/12/28 14:28:09;;;;;;;1.49;0.20;;;;;;;4.51;83.42;95738.25;1971015;82;20315;-75
2020/12/28 14:31:19;;;;;;;0.20;0.19;;;;;;;4.50;83.17;95733.19;1970936;82;20372;-75